Terminal Aerodrome Forecast
Issued by NWS Shreveport, LA

Home | Current Version | Previous Version | Text Only | Print | Product List | Glossary On
Versions: 1 2 3 4 5 6 7 8 9 10 11 12 13 14 15 16 17 18 19
000
FTUS44 KSHV 070539
TAFTXK
TAF
KTXK 070539Z 0706/0806 18005KT P6SM SKC
      TEMPO 0710/0714 5SM BR BKN008
     FM071400 18007KT 5SM BR BKN008
     FM071500 20012KT P6SM BKN015
     FM071700 20012G20KT P6SM VCTS SCT035CB SCT250
     FM080200 17006KT P6SM OVC250=

USA.gov is the U.S. government's official web portal to all federal, state and local government web resources and services.